Time;durP1;ratioP1;P1;durP2;ratioP2;P2;SDS_P1;SDS_P2;PMS_P1;PMS_P2;Temp;Humidity;BMP_temperature;BMP_pressure;BME280_temperature;BME280_humidity;BME280_pressure;Samples;Min_cycle;Max_cycle;Signal;HPM_P1;HPM_P2
2022/05/28 00:01:16;;;;;;;7.85;1.38;;;;;;;9.48;100.00;101775.47;10299977;28;20043;-72
2022/05/28 00:06:19;;;;;;;10.27;1.77;;;;;;;9.44;100.00;101774.25;10298945;28;20401;-71
2022/05/28 00:11:28;;;;;;;9.98;1.70;;;;;;;9.41;100.00;101771.13;10298387;28;20053;-72
2022/05/28 00:16:28;;;;;;;10.88;1.50;;;;;;;9.34;100.00;101768.41;10299544;28;20043;-72
2022/05/28 00:21:29;;;;;;;8.82;1.35;;;;;;;9.25;100.00;101769.75;10298051;28;20042;-73
2022/05/28 00:26:29;;;;;;;7.53;1.58;;;;;;;9.24;100.00;101774.44;10265868;28;20533;-72
2022/05/28 00:31:30;;;;;;;10.20;1.67;;;;;;;9.21;100.00;101774.03;10299196;28;20561;-72
2022/05/28 00:36:30;;;;;;;15.32;2.65;;;;;;;9.13;100.00;101771.56;10298313;28;20266;-72
2022/05/28 00:41:33;;;;;;;8.40;1.10;;;;;;;9.03;100.00;101772.91;10297399;28;20039;-71
2022/05/28 00:46:34;;;;;;;12.32;1.70;;;;;;;9.00;100.00;101778.81;10280237;28;20050;-71
2022/05/28 00:51:40;;;;;;;11.45;2.20;;;;;;;8.97;100.00;101773.78;10264325;28;20035;-72
2022/05/28 00:56:41;;;;;;;12.00;2.35;;;;;;;8.88;100.00;101775.09;10281045;28;20035;-71
2022/05/28 01:01:41;;;;;;;7.25;1.40;;;;;;;8.80;100.00;101778.09;10279016;28;20039;-72
2022/05/28 01:06:47;;;;;;;9.43;2.05;;;;;;;8.77;100.00;101778.56;10279751;28;20031;-71
2022/05/28 01:12:04;;;;;;;8.13;1.37;;;;;;;8.72;100.00;101775.63;10297387;28;20127;-70
2022/05/28 01:17:25;;;;;;;;;;;;;;;8.73;100.00;101775.41;10297953;28;20042;-70
2022/05/28 01:22:37;;;;;;;14.40;2.10;;;;;;;8.75;100.00;101775.19;10296442;28;19925;-72
2022/05/28 01:27:41;;;;;;;12.75;1.52;;;;;;;8.63;100.00;101778.63;10295370;28;20050;-69
2022/05/28 01:32:48;;;;;;;11.57;1.50;;;;;;;8.74;100.00;101784.47;10262851;28;20073;-70
2022/05/28 01:37:49;;;;;;;8.63;1.73;;;;;;;8.80;100.00;101778.94;10263493;28;20095;-71
2022/05/28 01:42:51;;;;;;;13.40;2.42;;;;;;;8.54;100.00;101727.78;10279574;28;20046;-68
2022/05/28 01:47:52;;;;;;;12.52;3.22;;;;;;;8.78;100.00;101766.50;10262902;28;20138;-69
2022/05/28 01:52:53;;;;;;;8.15;1.92;;;;;;;8.81;100.00;101769.66;10238315;28;20058;-68
2022/05/28 01:57:53;;;;;;;13.80;1.70;;;;;;;8.67;100.00;101735.09;10222892;28;20036;-68
2022/05/28 02:02:56;;;;;;;12.55;2.13;;;;;;;8.74;100.00;101751.53;10238035;29;20035;-67
2022/05/28 02:07:57;;;;;;;10.90;1.45;;;;;;;8.88;100.00;101762.19;10238645;29;20078;-68
2022/05/28 02:13:06;;;;;;;10.43;1.95;;;;;;;8.97;100.00;101756.44;10293479;28;20042;-68
2022/05/28 02:18:26;;;;;;;10.65;1.70;;;;;;;8.99;100.00;101766.16;10262316;28;20042;-68
2022/05/28 02:23:40;;;;;;;13.10;1.77;;;;;;;8.94;100.00;101773.38;10295075;28;20041;-68
2022/05/28 02:28:41;;;;;;;11.00;2.05;;;;;;;8.89;100.00;101774.06;10294928;28;20042;-68
2022/05/28 02:33:42;;;;;;;13.13;1.88;;;;;;;8.81;100.00;101772.41;10262451;28;20050;-68
2022/05/28 02:38:42;;;;;;;18.75;2.60;;;;;;;8.68;100.00;101747.75;10294480;28;20038;-67
2022/05/28 02:43:43;;;;;;;13.07;2.25;;;;;;;8.78;100.00;101764.59;10293181;28;20046;-67
2022/05/28 02:48:44;;;;;;;11.68;1.88;;;;;;;8.84;100.00;101769.19;10294874;28;20050;-67
2022/05/28 02:53:45;;;;;;;8.70;2.40;;;;;;;8.81;100.00;101769.66;10294461;28;20054;-68
2022/05/28 02:58:46;;;;;;;9.77;1.95;;;;;;;8.77;100.00;101768.41;10277244;28;20031;-69
2022/05/28 03:03:46;;;;;;;16.70;2.03;;;;;;;8.78;100.00;101769.25;10294909;28;20035;-68
2022/05/28 03:08:47;;;;;;;12.70;2.22;;;;;;;8.67;100.00;101757.91;10293947;28;20430;-68
2022/05/28 03:13:47;;;;;;;15.48;2.42;;;;;;;8.67;100.00;101768.03;10299721;28;20369;-68
2022/05/28 03:18:47;;;;;;;17.95;2.40;;;;;;;8.62;100.00;101763.22;10301914;28;20043;-67
2022/05/28 03:23:48;;;;;;;10.60;2.05;;;;;;;8.58;100.00;101770.22;10301556;28;20027;-65
2022/05/28 03:28:49;;;;;;;10.05;1.85;;;;;;;8.53;100.00;101778.25;10284277;28;20208;-68
2022/05/28 03:33:50;;;;;;;16.63;2.92;;;;;;;8.47;100.00;101779.97;10302016;28;20107;-67
2022/05/28 03:38:51;;;;;;;9.43;1.98;;;;;;;8.44;100.00;101774.06;10299351;28;20039;-67
2022/05/28 03:43:51;;;;;;;13.45;2.10;;;;;;;8.41;100.00;101769.00;10283312;28;20046;-67
2022/05/28 03:48:53;;;;;;;17.23;2.75;;;;;;;8.47;100.00;101777.25;10288769;28;20053;-68
2022/05/28 03:53:54;;;;;;;14.02;2.47;;;;;;;8.55;100.00;101781.63;10283381;28;20468;-68
2022/05/28 03:58:54;;;;;;;11.63;3.30;;;;;;;8.62;100.00;101770.59;10299985;28;20141;-67
2022/05/28 04:03:55;;;;;;;7.47;2.58;;;;;;;8.73;100.00;101777.31;10300018;28;20053;-67
2022/05/28 04:08:55;;;;;;;12.07;2.22;;;;;;;8.82;100.00;101778.72;10299352;28;20123;-68
2022/05/28 04:13:56;;;;;;;16.50;2.55;;;;;;;8.72;100.00;101737.19;10300070;28;20039;-67
2022/05/28 04:18:56;;;;;;;15.70;2.85;;;;;;;9.12;100.00;101770.72;10299818;28;20361;-68
2022/05/28 04:23:57;;;;;;;12.82;2.75;;;;;;;9.30;100.00;101786.41;10299190;28;20038;-68
2022/05/28 04:28:57;;;;;;;19.50;4.00;;;;;;;9.48;100.00;101772.72;10298077;28;20038;-68
2022/05/28 04:33:58;;;;;;;17.60;2.53;;;;;;;9.57;100.00;101783.44;10282313;28;20030;-68
2022/05/28 04:38:58;;;;;;;11.73;2.80;;;;;;;9.65;100.00;101783.16;10298796;28;20046;-68
2022/05/28 04:43:59;;;;;;;15.95;3.42;;;;;;;9.69;100.00;101814.63;10298795;28;20035;-69
2022/05/28 04:48:59;;;;;;;9.35;2.67;;;;;;;9.48;100.00;101829.63;10297766;28;20062;-70
2022/05/28 04:54:00;;;;;;;8.50;2.22;;;;;;;9.33;100.00;101809.88;10298009;28;20089;-70
2022/05/28 04:59:00;;;;;;;7.32;1.50;;;;;;;9.31;100.00;101809.25;10297043;28;20527;-68
2022/05/28 05:04:01;;;;;;;12.20;2.60;;;;;;;9.36;100.00;101815.75;10294581;28;20097;-68
2022/05/28 05:09:01;;;;;;;4.85;1.60;;;;;;;9.31;100.00;101817.50;10296333;28;20035;-66
2022/05/28 05:14:02;;;;;;;9.20;2.25;;;;;;;9.33;100.00;101818.13;10297874;28;20054;-68
2022/05/28 05:19:02;;;;;;;10.43;2.60;;;;;;;9.40;100.00;101821.66;10263106;28;20035;-68
2022/05/28 05:24:03;;;;;;;13.48;2.13;;;;;;;9.74;100.00;101825.81;10296132;28;20097;-71
2022/05/28 05:29:03;;;;;;;9.77;2.65;;;;;;;10.14;100.00;101821.81;10295684;28;20049;-68
2022/05/28 05:34:04;;;;;;;11.13;2.78;;;;;;;10.42;100.00;101829.59;10296431;28;20054;-68
2022/05/28 05:39:04;;;;;;;10.82;3.13;;;;;;;10.45;100.00;101837.38;10296740;28;20102;-69
2022/05/28 05:44:06;;;;;;;14.90;2.45;;;;;;;10.56;100.00;101839.34;10296596;28;20039;-70
2022/05/28 05:49:07;;;;;;;12.25;2.95;;;;;;;10.72;100.00;101845.31;10295202;28;20521;-70
2022/05/28 05:54:07;;;;;;;19.05;2.95;;;;;;;11.00;100.00;101840.06;10295425;28;20039;-72
2022/05/28 05:59:07;;;;;;;17.30;2.75;;;;;;;11.30;100.00;101839.19;10295352;28;20034;-70
2022/05/28 06:04:08;;;;;;;18.50;3.53;;;;;;;11.34;100.00;101834.88;10295528;28;20042;-70
2022/05/28 06:09:09;;;;;;;17.52;2.75;;;;;;;11.28;100.00;101844.09;10294348;28;20038;-69
2022/05/28 06:14:09;;;;;;;23.63;2.90;;;;;;;11.19;100.00;101845.50;10295394;28;20198;-69
2022/05/28 06:19:10;;;;;;;18.63;2.70;;;;;;;11.58;100.00;101855.09;10295485;28;20051;-68
2022/05/28 06:24:10;;;;;;;11.45;2.80;;;;;;;11.74;100.00;101863.72;10294938;28;20042;-68
2022/05/28 06:29:10;;;;;;;14.32;2.40;;;;;;;11.69;100.00;101861.69;10295369;28;20058;-69
2022/05/28 06:34:11;;;;;;;18.13;3.10;;;;;;;11.76;100.00;101851.41;10295548;28;20035;-68
2022/05/28 06:39:12;;;;;;;15.68;2.63;;;;;;;11.99;100.00;101850.59;10293898;28;20130;-67
2022/05/28 06:44:13;;;;;;;16.02;2.53;;;;;;;12.30;100.00;101857.66;10293582;28;20035;-69
2022/05/28 06:49:13;;;;;;;15.07;2.05;;;;;;;11.99;100.00;101847.84;10301046;28;20054;-68
2022/05/28 06:54:14;;;;;;;17.65;2.50;;;;;;;12.53;100.00;101836.59;10284582;28;20035;-69
2022/05/28 06:59:14;;;;;;;17.50;3.30;;;;;;;13.26;100.00;101842.44;10264682;28;20042;-65
2022/05/28 07:04:15;;;;;;;16.67;2.53;;;;;;;12.82;100.00;101847.69;10280181;28;20040;-67
2022/05/28 07:09:15;;;;;;;17.00;2.60;;;;;;;12.55;100.00;101858.44;10264801;28;20075;-66
2022/05/28 07:14:16;;;;;;;11.07;3.10;;;;;;;12.81;100.00;101854.28;10276790;28;20058;-66
2022/05/28 07:19:16;;;;;;;11.77;2.95;;;;;;;13.37;100.00;101849.03;10283833;28;20043;-65
2022/05/28 07:24:17;;;;;;;11.95;2.08;;;;;;;13.86;100.00;101850.13;10287549;28;20047;-65
2022/05/28 07:29:17;;;;;;;15.43;2.00;;;;;;;13.87;99.46;101849.06;10278951;28;20499;-65
2022/05/28 07:34:18;;;;;;;14.90;2.60;;;;;;;14.25;100.00;101846.56;10279994;28;20046;-67
2022/05/28 07:39:18;;;;;;;10.48;2.05;;;;;;;13.85;98.81;101856.78;10279534;28;20061;-65
2022/05/28 07:44:19;;;;;;;23.85;3.92;;;;;;;13.06;100.00;101865.00;10278089;28;20039;-67
2022/05/28 07:49:19;;;;;;;20.63;2.80;;;;;;;12.78;100.00;101865.84;10278788;28;20110;-65
2022/05/28 07:54:19;;;;;;;15.68;3.00;;;;;;;13.12;100.00;101869.56;10278348;28;20036;-65
2022/05/28 07:59:20;;;;;;;15.52;2.10;;;;;;;13.28;100.00;101873.47;10277868;28;20039;-66
2022/05/28 08:04:20;;;;;;;13.40;3.13;;;;;;;13.57;100.00;101860.44;10277518;28;20039;-65
2022/05/28 08:09:21;;;;;;;10.70;3.15;;;;;;;13.84;97.02;101849.53;10272711;28;20129;-65
2022/05/28 08:14:21;;;;;;;10.18;2.60;;;;;;;13.83;98.44;101870.03;10278938;28;20031;-65
2022/05/28 08:19:22;;;;;;;13.88;2.78;;;;;;;13.35;98.77;101879.69;10278453;28;20046;-66
2022/05/28 08:24:22;;;;;;;10.35;2.17;;;;;;;13.00;100.00;101886.22;10276939;28;20086;-66
2022/05/28 08:29:24;;;;;;;12.80;2.08;;;;;;;13.07;100.00;101906.25;10276011;28;20053;-65
2022/05/28 08:34:25;;;;;;;10.65;2.88;;;;;;;13.75;100.00;101878.75;10263469;28;20107;-68
2022/05/28 08:39:25;;;;;;;20.30;3.30;;;;;;;13.91;92.50;101869.59;10274297;28;20039;-65
2022/05/28 08:44:31;;;;;;;11.57;2.30;;;;;;;13.77;94.11;101871.03;10274743;28;20046;-70
2022/05/28 08:49:31;;;;;;;16.50;2.35;;;;;;;13.78;91.71;101872.69;10243458;28;20053;-67
2022/05/28 08:54:35;;;;;;;13.05;2.05;;;;;;;14.18;93.54;101884.66;10242907;28;20039;-69
2022/05/28 08:59:39;;;;;;;12.38;2.45;;;;;;;13.96;90.62;101871.59;10276483;28;20038;-68
2022/05/28 09:04:40;;;;;;;10.73;2.03;;;;;;;14.70;88.57;101863.00;10247695;28;20039;-68
2022/05/28 09:09:46;;;;;;;7.03;1.65;;;;;;;15.37;85.27;101866.50;10249916;28;20046;-68
2022/05/28 09:14:47;;;;;;;14.45;2.25;;;;;;;13.98;84.27;101876.91;10283404;28;20042;-70
2022/05/28 09:19:48;;;;;;;11.55;2.00;;;;;;;14.24;87.62;101890.06;10277258;28;20042;-68
2022/05/28 09:24:48;;;;;;;9.15;1.98;;;;;;;14.24;86.70;101892.81;10278646;28;20039;-67
2022/05/28 09:30:02;;;;;;;9.00;1.65;;;;;;;14.49;83.01;101867.41;10296688;28;20039;-71
2022/05/28 09:35:10;;;;;;;9.60;1.65;;;;;;;14.92;81.04;101878.75;10280294;28;20030;-70
2022/05/28 09:40:20;;;;;;;11.00;1.90;;;;;;;14.41;83.85;101884.47;10294629;28;20043;-70
2022/05/28 09:45:32;;;;;;;10.02;2.13;;;;;;;15.01;85.18;101891.09;10277820;28;20447;-69
2022/05/28 09:50:41;;;;;;;12.30;1.83;;;;;;;15.06;82.53;101876.44;10278803;28;20047;-68
2022/05/28 09:55:49;;;;;;;11.57;2.92;;;;;;;15.44;82.85;101882.94;10278165;28;20039;-70
2022/05/28 10:00:50;;;;;;;11.15;2.25;;;;;;;13.98;83.36;101882.44;10260336;28;20070;-69
2022/05/28 10:05:54;;;;;;;14.57;2.78;;;;;;;13.91;84.74;101888.13;10277382;28;20038;-72
2022/05/28 10:10:56;;;;;;;8.80;1.52;;;;;;;14.38;81.36;101875.81;10241967;28;20133;-67
2022/05/28 10:15:58;;;;;;;10.63;1.75;;;;;;;14.58;80.61;101881.69;10277998;28;20034;-68
2022/05/28 10:21:12;;;;;;;11.93;1.77;;;;;;;15.11;78.72;101868.16;10260385;28;20038;-68
2022/05/28 10:26:29;;;;;;;7.82;1.52;;;;;;;14.49;76.80;101883.16;10259072;28;20074;-70
2022/05/28 10:31:35;;;;;;;8.80;1.67;;;;;;;14.61;77.30;101875.59;10274424;28;20054;-67
2022/05/28 10:36:35;;;;;;;12.48;1.73;;;;;;;14.56;75.30;101871.97;10253141;28;20051;-69
2022/05/28 10:41:36;;;;;;;9.68;1.20;;;;;;;14.42;73.05;101872.28;10252774;28;20400;-70
2022/05/28 10:46:58;;;;;;;7.47;1.25;;;;;;;15.32;74.58;101874.78;10256131;28;20058;-71
2022/05/28 10:52:17;;;;;;;5.80;1.20;;;;;;;15.61;68.96;101849.53;10274169;28;20513;-70
2022/05/28 10:57:36;;;;;;;7.97;1.30;;;;;;;15.89;71.53;101867.81;10273454;28;20398;-71
2022/05/28 11:02:44;;;;;;;8.75;1.90;;;;;;;16.23;67.44;101854.44;10272324;28;20062;-70
2022/05/28 11:08:03;;;;;;;5.78;1.20;;;;;;;16.16;66.82;101851.06;10272060;28;20058;-69
2022/05/28 11:13:18;;;;;;;9.93;1.50;;;;;;;15.51;68.18;101872.47;10240284;28;20070;-68
2022/05/28 11:18:31;;;;;;;11.93;1.65;;;;;;;14.75;71.77;101886.31;10286954;28;20046;-68
2022/05/28 11:23:43;;;;;;;6.07;1.35;;;;;;;14.94;74.33;101882.13;10247079;28;20066;-69
2022/05/28 11:28:49;;;;;;;5.93;1.40;;;;;;;16.09;67.35;101862.41;10241536;28;20043;-70
2022/05/28 11:33:50;;;;;;;9.68;1.40;;;;;;;14.83;70.84;101889.47;10276139;28;20038;-71
2022/05/28 11:39:02;;;;;;;7.38;1.48;;;;;;;14.29;75.09;101909.50;10246951;28;20039;-70
2022/05/28 11:44:07;;;;;;;9.25;1.58;;;;;;;14.55;77.68;101909.84;10245747;28;20053;-71
2022/05/28 11:54:38;;;;;;;10.10;1.30;;;;;;;14.86;69.98;101871.47;10262252;28;20036;-70
2022/05/28 11:59:38;;;;;;;10.98;2.38;;;;;;;14.91;71.86;101885.44;10263738;28;20047;-70
2022/05/28 12:04:40;;;;;;;9.20;1.80;;;;;;;16.36;69.68;101855.09;10265942;28;20049;-69
2022/05/28 12:09:44;;;;;;;8.45;1.20;;;;;;;17.26;64.47;101838.16;10265308;28;20150;-69
2022/05/28 12:15:00;;;;;;;7.43;1.50;;;;;;;16.91;62.45;101820.31;10281906;28;20035;-68
2022/05/28 12:20:07;;;;;;;7.35;1.50;;;;;;;17.07;64.23;101826.72;10299624;28;20571;-69
2022/05/28 12:25:15;;;;;;;11.00;1.75;;;;;;;15.84;66.77;101848.34;10264907;28;20122;-69
2022/05/28 12:30:54;;;;;;;10.13;1.73;;;;;;;14.46;83.62;101939.09;10298197;28;20054;-70
2022/05/28 12:36:21;;;;;;;10.52;1.63;;;;;;;13.69;85.89;101899.97;10080363;29;20041;-68
2022/05/28 12:41:29;;;;;;;10.18;1.50;;;;;;;14.33;92.12;101909.84;10267061;28;20047;-67
2022/05/28 12:46:36;;;;;;;12.27;1.90;;;;;;;15.58;84.25;101883.34;10281319;28;20093;-66
2022/05/28 12:52:09;;;;;;;16.90;2.33;;;;;;;14.60;83.04;101879.50;10297821;28;20078;-67
2022/05/28 12:57:29;;;;;;;13.23;2.13;;;;;;;14.13;86.69;101902.03;10280451;28;20137;-67
2022/05/28 13:02:57;;;;;;;16.30;2.33;;;;;;;13.89;87.04;101901.38;10297382;28;20034;-67
2022/05/28 13:08:02;;;;;;;11.80;2.65;;;;;;;14.11;86.31;101874.59;10293167;28;20121;-65
2022/05/28 13:13:06;;;;;;;11.10;1.77;;;;;;;15.52;83.42;101871.34;10263381;28;20043;-67
2022/05/28 13:18:18;;;;;;;9.32;1.83;;;;;;;15.23;80.48;101866.06;10297401;28;20039;-67
2022/05/28 13:23:29;;;;;;;15.25;2.10;;;;;;;15.04;79.85;101851.72;10295771;28;20034;-71
2022/05/28 13:28:47;;;;;;;10.43;1.98;;;;;;;15.86;75.12;101849.75;10295947;28;20576;-70
2022/05/28 13:33:48;;;;;;;12.43;1.77;;;;;;;15.49;75.49;101842.19;10279479;28;20103;-70
2022/05/28 13:38:50;;;;;;;8.68;1.13;;;;;;;15.75;73.97;101839.69;10296073;28;20043;-71
2022/05/28 13:43:55;;;;;;;7.28;2.33;;;;;;;16.91;67.46;101811.97;10260952;28;20043;-65
2022/05/28 13:48:56;;;;;;;9.20;1.67;;;;;;;16.04;67.78;101820.72;10248681;28;20574;-70
2022/05/28 13:54:03;;;;;;;6.45;1.48;;;;;;;15.59;69.65;101818.44;10270373;28;20054;-65
2022/05/28 13:59:04;;;;;;;6.80;1.90;;;;;;;16.77;65.93;101802.44;10274579;28;20066;-65
2022/05/28 14:04:19;;;;;;;6.88;1.52;;;;;;;15.61;66.27;101805.94;10244663;28;20039;-66
2022/05/28 14:09:21;;;;;;;7.80;1.70;;;;;;;15.53;66.73;101801.72;10236702;28;20082;-67
2022/05/28 14:14:26;;;;;;;7.38;1.10;;;;;;;16.27;65.69;101791.69;10256111;28;20039;-66
2022/05/28 14:19:32;;;;;;;7.30;1.02;;;;;;;15.37;69.56;101807.41;10256506;28;20043;-66
2022/05/28 14:24:36;;;;;;;9.60;1.30;;;;;;;14.54;75.88;101853.59;10245162;28;20047;-66
2022/05/28 14:29:39;;;;;;;13.57;2.30;;;;;;;14.23;88.89;101891.13;10261721;28;20047;-67
2022/05/28 14:34:44;;;;;;;15.90;3.55;;;;;;;13.50;100.00;101899.34;10259490;28;20039;-65
2022/05/28 14:39:45;;;;;;;11.77;2.20;;;;;;;13.01;100.00;101912.75;10231837;28;20152;-66
2022/05/28 14:44:45;;;;;;;5.63;1.25;;;;;;;12.40;100.00;101901.25;10291829;28;20065;-67
2022/05/28 14:49:55;;;;;;;11.88;1.45;;;;;;;12.22;100.00;101904.97;10276854;28;20035;-67
2022/05/28 14:55:01;;;;;;;9.32;1.50;;;;;;;12.50;100.00;101906.13;10277682;28;20031;-67
2022/05/28 15:00:06;;;;;;;7.55;1.55;;;;;;;12.69;100.00;101899.38;10277594;28;20550;-66
2022/05/28 15:05:09;;;;;;;6.70;1.75;;;;;;;13.93;100.00;101877.63;10324867;28;20617;-66
2022/05/28 15:10:23;;;;;;;5.28;1.00;;;;;;;13.95;100.00;101867.16;10335202;28;20485;-66
2022/05/28 15:15:23;;;;;;;3.92;0.70;;;;;;;14.46;96.25;101847.69;10324318;28;20042;-65
2022/05/28 15:20:23;;;;;;;7.10;0.73;;;;;;;15.57;89.51;101837.28;10341521;28;20596;-67
2022/05/28 15:25:24;;;;;;;6.07;1.27;;;;;;;14.63;90.57;101845.69;10341718;28;20034;-67
2022/05/28 15:30:24;;;;;;;3.47;0.90;;;;;;;14.50;90.84;101826.69;10340948;28;20034;-68
2022/05/28 15:40:48;;;;;;;7.88;1.48;;;;;;;14.21;89.16;101824.06;10340173;28;20035;-70
2022/05/28 15:45:48;;;;;;;9.55;1.85;;;;;;;14.78;88.78;101825.69;10323552;28;20058;-69
2022/05/28 15:50:49;;;;;;;8.38;1.40;;;;;;;15.38;86.82;101811.84;10323279;28;20034;-69
2022/05/28 15:55:49;;;;;;;12.77;1.75;;;;;;;14.54;87.77;101830.59;10322867;28;20087;-69
2022/05/28 16:00:50;;;;;;;10.40;2.15;;;;;;;13.94;89.69;101837.81;10322999;28;20081;-67
2022/05/28 16:05:56;;;;;;;11.65;2.17;;;;;;;14.63;87.17;101823.53;10339991;28;20450;-69
2022/05/28 16:10:57;;;;;;;10.23;2.07;;;;;;;14.98;85.04;101808.41;10322529;28;20043;-67
2022/05/28 16:15:57;;;;;;;9.57;1.63;;;;;;;14.06;85.81;101821.09;10322134;28;20042;-67
2022/05/28 16:20:58;;;;;;;9.88;1.90;;;;;;;14.80;81.17;101793.00;10311258;28;20046;-69
2022/05/28 16:25:58;;;;;;;7.80;1.77;;;;;;;15.27;77.60;101785.94;10339020;28;20104;-67
2022/05/28 16:30:58;;;;;;;7.68;2.05;;;;;;;15.02;74.78;101776.28;10339104;28;20034;-69
2022/05/28 16:35:59;;;;;;;7.70;1.70;;;;;;;14.69;79.77;101796.72;10321018;28;20038;-67
2022/05/28 16:41:00;;;;;;;8.98;1.42;;;;;;;14.66;79.89;101802.81;10320527;28;20057;-63
2022/05/28 16:46:01;;;;;;;12.02;1.30;;;;;;;14.30;80.64;101797.63;10321691;28;20054;-68
2022/05/28 16:51:01;;;;;;;7.22;1.17;;;;;;;13.88;82.77;101808.38;10308982;28;20345;-67
2022/05/28 16:56:02;;;;;;;12.93;2.00;;;;;;;13.60;87.61;101831.44;10257664;29;20031;-67
2022/05/28 17:01:02;;;;;;;10.80;1.63;;;;;;;13.07;93.12;101845.41;10225357;29;20046;-68
2022/05/28 17:06:03;;;;;;;8.02;1.25;;;;;;;12.63;94.11;101827.66;10257190;29;20042;-66
2022/05/28 17:11:04;;;;;;;9.88;2.20;;;;;;;12.69;94.81;101813.75;10256888;29;20054;-67
2022/05/28 17:16:05;;;;;;;6.30;1.35;;;;;;;12.74;97.57;101812.16;10240180;29;20043;-67
2022/05/28 17:21:06;;;;;;;8.40;2.13;;;;;;;12.78;100.00;101824.41;10240701;29;20035;-67
2022/05/28 17:26:06;;;;;;;8.55;2.15;;;;;;;12.52;100.00;101818.34;10239601;29;20040;-66
2022/05/28 17:31:07;;;;;;;9.90;1.75;;;;;;;12.28;100.00;101821.16;10256149;28;20494;-67
2022/05/28 17:36:11;;;;;;;8.90;1.50;;;;;;;12.28;100.00;101826.69;10223366;29;20051;-66
2022/05/28 17:41:15;;;;;;;11.60;1.80;;;;;;;12.08;100.00;101834.50;10255775;29;20512;-69
2022/05/28 17:46:16;;;;;;;9.95;2.20;;;;;;;11.25;100.00;101837.13;10223898;29;20043;-68
2022/05/28 17:51:25;;;;;;;16.55;2.17;;;;;;;10.83;100.00;101847.28;10223560;29;20040;-71
2022/05/28 17:56:26;;;;;;;15.00;3.00;;;;;;;10.70;100.00;101832.59;10239880;28;20047;-69
2022/05/28 18:01:31;;;;;;;12.85;2.97;;;;;;;10.82;100.00;101824.41;10264079;28;20063;-70
2022/05/28 18:06:31;;;;;;;13.93;3.00;;;;;;;10.84;100.00;101825.00;10221950;29;20203;-70
2022/05/28 18:11:32;;;;;;;17.77;2.70;;;;;;;10.87;100.00;101820.94;10221917;29;20047;-70
2022/05/28 18:16:40;;;;;;;23.55;3.10;;;;;;;10.87;100.00;101815.44;10256115;29;20099;-70
2022/05/28 18:21:41;;;;;;;12.80;2.65;;;;;;;10.89;100.00;101818.78;10238307;29;20050;-71
2022/05/28 18:26:42;;;;;;;17.40;3.08;;;;;;;10.88;100.00;101817.13;10254902;29;20035;-70
2022/05/28 18:31:42;;;;;;;22.67;3.75;;;;;;;10.87;100.00;101815.44;10237497;29;20035;-70
2022/05/28 18:36:43;;;;;;;15.77;2.90;;;;;;;10.89;100.00;101818.78;10254422;29;20035;-69
2022/05/28 18:41:45;;;;;;;11.43;3.17;;;;;;;10.79;100.00;101801.97;10257182;28;20040;-69
2022/05/28 18:46:45;;;;;;;19.17;4.00;;;;;;;10.50;100.00;101760.44;10246795;29;20094;-69
2022/05/28 18:51:47;;;;;;;14.13;2.85;;;;;;;10.67;100.00;101794.53;10262556;29;20044;-69
2022/05/28 18:56:49;;;;;;;16.25;2.97;;;;;;;10.70;100.00;101794.03;10229208;29;20070;-69
2022/05/28 19:01:49;;;;;;;15.00;2.85;;;;;;;10.72;100.00;101790.22;10228835;29;20036;-70
2022/05/28 19:06:56;;;;;;;14.85;2.72;;;;;;;10.62;100.00;101772.34;10260848;29;20439;-70
2022/05/28 19:11:59;;;;;;;13.35;3.58;;;;;;;10.57;100.00;101768.63;10244892;29;20035;-70
2022/05/28 19:17:01;;;;;;;14.25;3.17;;;;;;;10.48;100.00;101766.19;10262069;29;20589;-69
2022/05/28 19:22:01;;;;;;;12.15;3.00;;;;;;;10.42;100.00;101769.03;10284836;28;20041;-70
2022/05/28 19:27:14;;;;;;;13.20;2.60;;;;;;;10.30;100.00;101767.03;10300899;28;20054;-68
2022/05/28 19:32:25;;;;;;;17.90;4.05;;;;;;;10.23;100.00;101766.25;10285369;28;20038;-70
2022/05/28 19:37:26;;;;;;;16.60;3.03;;;;;;;10.25;100.00;101764.13;10284119;28;20119;-70
2022/05/28 19:42:29;;;;;;;12.15;3.20;;;;;;;10.24;100.00;101762.41;10299575;28;20123;-70
2022/05/28 19:47:29;;;;;;;13.48;3.60;;;;;;;10.18;100.00;101755.09;10264860;28;20561;-70
2022/05/28 19:52:30;;;;;;;12.65;3.38;;;;;;;10.11;100.00;101762.59;10281177;28;20393;-70
2022/05/28 19:57:31;;;;;;;17.25;3.88;;;;;;;10.07;100.00;101761.38;10281807;28;20043;-69
2022/05/28 20:02:31;;;;;;;16.25;3.17;;;;;;;9.96;100.00;101743.69;10282547;28;20050;-68
2022/05/28 20:07:32;;;;;;;18.75;3.72;;;;;;;9.97;100.00;101745.38;10281406;28;20061;-70
2022/05/28 20:12:36;;;;;;;19.25;4.30;;;;;;;9.94;100.00;101740.31;10297763;28;20053;-71
2022/05/28 20:17:38;;;;;;;12.02;3.53;;;;;;;9.98;100.00;101741.56;10298211;28;20430;-68
2022/05/28 20:22:39;;;;;;;17.13;3.95;;;;;;;10.01;100.00;101734.78;10281358;28;20043;-70
2022/05/28 20:27:39;;;;;;;15.13;4.28;;;;;;;10.03;100.00;101733.47;10298200;28;20107;-72
2022/05/28 20:32:47;;;;;;;20.75;4.78;;;;;;;10.00;100.00;101724.81;10297171;28;20031;-70
2022/05/28 20:37:48;;;;;;;25.92;5.10;;;;;;;9.93;100.00;101718.56;10280188;28;20051;-69
2022/05/28 20:42:48;;;;;;;17.35;6.32;;;;;;;9.82;100.00;101729.25;10296957;28;20043;-70
2022/05/28 20:47:51;;;;;;;19.77;5.10;;;;;;;9.66;100.00;101727.13;10298500;28;20045;-72
2022/05/28 20:52:52;;;;;;;21.98;5.57;;;;;;;9.62;100.00;101728.63;10263901;28;20031;-71
2022/05/28 20:57:52;;;;;;;25.10;6.40;;;;;;;9.53;100.00;101718.97;10279916;28;20047;-71
2022/05/28 21:02:53;;;;;;;22.17;5.32;;;;;;;9.49;100.00;101722.19;10297280;28;20035;-71
2022/05/28 21:07:53;;;;;;;17.67;5.82;;;;;;;9.45;100.00;101712.72;10278864;28;20047;-70
2022/05/28 21:12:54;;;;;;;22.83;6.85;;;;;;;9.45;100.00;101709.13;10279759;28;20054;-70
2022/05/28 21:17:54;;;;;;;21.15;5.47;;;;;;;9.35;100.00;101698.66;10296419;28;20030;-71
2022/05/28 21:22:55;;;;;;;20.02;5.43;;;;;;;9.29;100.00;101700.38;10294046;28;20039;-70
2022/05/28 21:33:14;;;;;;;24.35;6.57;;;;;;;9.20;100.00;101676.16;10294059;28;20039;-70
2022/05/28 21:38:15;;;;;;;22.23;6.78;;;;;;;9.28;100.00;101689.63;10299129;28;20042;-69
2022/05/28 21:43:15;;;;;;;16.90;6.35;;;;;;;9.25;100.00;101671.69;10333419;28;20499;-69
2022/05/28 21:48:16;;;;;;;23.33;6.10;;;;;;;9.22;100.00;101665.78;10332961;28;20034;-70
2022/05/28 21:53:16;;;;;;;29.40;6.53;;;;;;;9.23;100.00;101662.00;10315535;28;20042;-70
2022/05/28 21:58:17;;;;;;;23.70;5.60;;;;;;;9.24;100.00;101653.53;10316469;28;20042;-69
2022/05/28 22:03:20;;;;;;;16.98;5.35;;;;;;;9.29;100.00;101655.59;10317120;28;20034;-69
2022/05/28 22:08:20;;;;;;;21.25;6.60;;;;;;;9.26;100.00;101656.91;10316614;28;20039;-70
2022/05/28 22:13:21;;;;;;;16.10;4.75;;;;;;;9.21;100.00;101656.72;10316234;28;20038;-69
2022/05/28 22:18:21;;;;;;;21.58;5.78;;;;;;;9.23;100.00;101653.75;10332870;28;20069;-69
2022/05/28 22:23:22;;;;;;;24.65;6.30;;;;;;;9.20;100.00;101652.31;10333212;28;20049;-69
2022/05/28 22:28:22;;;;;;;22.02;4.43;;;;;;;9.19;100.00;101644.28;10332992;28;20041;-69
2022/05/28 22:33:23;;;;;;;22.63;5.30;;;;;;;9.21;100.00;101636.66;10334172;28;20051;-69
2022/05/28 22:38:24;;;;;;;11.05;4.15;;;;;;;9.21;100.00;101631.16;10268880;28;20125;-69
2022/05/28 22:43:25;;;;;;;15.07;5.70;;;;;;;9.28;100.00;101626.41;10237416;29;20523;-69
2022/05/28 22:48:29;;;;;;;21.05;4.57;;;;;;;9.29;100.00;101617.13;10254669;29;20050;-69
2022/05/28 22:53:34;;;;;;;16.90;3.75;;;;;;;9.33;100.00;101615.59;10254598;29;20099;-69
2022/05/28 22:58:42;;;;;;;20.58;5.22;;;;;;;9.32;100.00;101608.41;10221934;29;20106;-69
2022/05/28 23:03:44;;;;;;;25.88;4.78;;;;;;;9.36;100.00;101606.88;10255187;29;20414;-69
2022/05/28 23:08:44;;;;;;;20.67;4.85;;;;;;;9.40;100.00;101610.84;10221206;29;20131;-68
2022/05/28 23:13:44;;;;;;;19.95;4.78;;;;;;;9.43;100.00;101602.16;10254272;29;20067;-68